Time;durP1;ratioP1;P1;durP2;ratioP2;P2;SDS_P1;SDS_P2;PMS_P1;PMS_P2;Temp;Humidity;BMP_temperature;BMP_pressure;BME280_temperature;BME280_humidity;BME280_pressure;Samples;Min_cycle;Max_cycle;Signal;HPM_P1;HPM_P2
2023/10/12 00:01:25;;;;;;;8.20;4.03;;;;;;;17.71;52.85;96722.28;6155815;23;20026;-78
2023/10/12 00:03:58;;;;;;;8.55;3.53;;;;;;;17.70;53.16;96720.66;6155203;23;20332;-77
2023/10/12 00:06:30;;;;;;;6.47;4.22;;;;;;;17.68;53.16;96717.44;6155259;23;20456;-77
2023/10/12 00:09:03;;;;;;;9.07;4.17;;;;;;;17.70;53.18;96714.56;6171221;23;20025;-78
2023/10/12 00:11:37;;;;;;;7.57;4.32;;;;;;;17.69;53.44;96715.63;6180046;23;20240;-79
2023/10/12 00:14:05;;;;;;;8.68;4.15;;;;;;;17.66;53.15;96714.22;6169357;23;20045;-78
2023/10/12 00:16:35;;;;;;;8.90;4.30;;;;;;;17.66;53.35;96714.22;6170049;23;20408;-78
2023/10/12 00:19:03;;;;;;;8.45;3.63;;;;;;;17.66;53.43;96708.13;6157138;23;20031;-79
2023/10/12 00:21:35;;;;;;;8.73;3.95;;;;;;;17.63;53.39;96712.03;6157063;23;20336;-79
2023/10/12 00:24:06;;;;;;;7.47;3.47;;;;;;;17.61;53.48;96711.44;6156868;23;20105;-78
2023/10/12 00:26:35;;;;;;;9.70;4.38;;;;;;;17.63;53.61;96713.88;6156627;23;20100;-79
2023/10/12 00:29:06;;;;;;;8.38;3.80;;;;;;;17.60;53.51;96706.38;6156368;23;20029;-79
2023/10/12 00:31:35;;;;;;;9.85;3.88;;;;;;;17.58;53.79;96706.63;6156257;23;20463;-79
2023/10/12 00:34:04;;;;;;;7.20;3.60;;;;;;;17.54;53.96;96708.09;6156795;23;20022;-79
2023/10/12 00:36:36;;;;;;;4.72;3.30;;;;;;;17.48;53.99;96707.16;6156768;23;20025;-79
2023/10/12 00:39:09;;;;;;;7.43;3.90;;;;;;;17.42;54.39;96707.22;6156928;23;20029;-79
2023/10/12 00:41:44;;;;;;;12.25;3.58;;;;;;;17.37;54.32;96704.47;6156275;23;20025;-79
2023/10/12 00:44:12;;;;;;;6.93;3.88;;;;;;;17.36;54.28;96700.22;6156457;23;20324;-79
2023/10/12 00:46:48;;;;;;;15.27;3.85;;;;;;;17.30;54.51;96700.06;6156970;23;20028;-79
2023/10/12 00:49:21;;;;;;;7.00;3.60;;;;;;;17.26;54.62;96698.91;6156449;23;20036;-79
2023/10/12 00:51:51;;;;;;;7.68;4.25;;;;;;;17.24;54.72;96690.41;6156681;23;20022;-78
2023/10/12 00:54:27;;;;;;;6.68;3.67;;;;;;;17.25;54.68;96697.31;6156230;23;20464;-79
2023/10/12 00:57:01;;;;;;;12.75;3.97;;;;;;;17.25;54.61;96693.84;6156427;23;20025;-79
2023/10/12 00:59:31;;;;;;;9.43;3.75;;;;;;;17.24;54.42;96689.63;6156776;23;20022;-78
2023/10/12 01:02:00;;;;;;;10.00;4.20;;;;;;;17.20;54.51;96691.88;6156434;23;20100;-78
2023/10/12 01:04:30;;;;;;;7.20;3.50;;;;;;;17.18;54.75;96683.38;6158632;23;20022;-79
2023/10/12 01:06:59;;;;;;;11.13;4.20;;;;;;;17.17;54.54;96684.41;6156394;23;20021;-78
2023/10/12 01:09:38;;;;;;;10.75;4.45;;;;;;;17.18;54.68;96688.66;6156163;23;20032;-78
2023/10/12 01:12:13;;;;;;;6.38;4.10;;;;;;;17.17;54.88;96681.78;6156623;23;20403;-78
2023/10/12 01:14:47;;;;;;;9.80;4.30;;;;;;;17.13;54.73;96680.63;6155805;23;20022;-79
2023/10/12 01:17:24;;;;;;;6.57;3.58;;;;;;;17.15;54.79;96686.47;6164082;23;20407;-79
2023/10/12 01:19:52;;;;;;;9.27;3.95;;;;;;;17.16;54.63;96682.78;6160926;23;20019;-79
2023/10/12 01:22:27;;;;;;;9.23;3.70;;;;;;;17.14;54.71;96684.84;6159877;23;20087;-78
2023/10/12 01:25:00;;;;;;;8.32;4.20;;;;;;;17.14;54.49;96682.22;6177133;23;20025;-78
2023/10/12 01:27:29;;;;;;;10.07;3.95;;;;;;;17.15;54.78;96683.84;6164651;23;20070;-79
2023/10/12 01:29:59;;;;;;;9.68;4.20;;;;;;;17.17;54.64;96673.88;6159921;23;20029;-79
2023/10/12 01:32:36;;;;;;;8.90;4.10;;;;;;;17.15;54.42;96670.66;6155963;23;20021;-79
2023/10/12 01:35:06;;;;;;;6.88;3.90;;;;;;;17.07;54.77;96669.13;6156151;23;20021;-79
2023/10/12 01:37:48;;;;;;;9.43;3.83;;;;;;;17.02;54.91;96668.97;6156199;23;20033;-79
2023/10/12 01:40:21;;;;;;;9.52;4.28;;;;;;;16.98;54.87;96674.91;6156737;23;20017;-78
2023/10/12 01:42:56;;;;;;;8.90;4.40;;;;;;;16.94;55.18;96679.00;6163437;23;20021;-79
2023/10/12 01:45:40;;;;;;;9.02;4.18;;;;;;;16.89;55.07;96680.47;6169675;23;20471;-79
2023/10/12 01:48:11;;;;;;;10.52;4.28;;;;;;;16.87;55.36;96669.34;6168785;23;20073;-79
2023/10/12 01:50:40;;;;;;;8.80;4.20;;;;;;;16.87;55.42;96682.53;6156518;23;20101;-78
2023/10/12 01:53:23;;;;;;;7.22;3.60;;;;;;;16.87;55.82;96690.44;6156257;23;20061;-79
2023/10/12 01:55:52;;;;;;;10.02;4.30;;;;;;;16.89;55.33;96683.09;6155895;23;20026;-78
2023/10/12 01:58:23;;;;;;;5.32;3.80;;;;;;;16.90;55.47;96694.44;6156073;23;20522;-78
2023/10/12 02:00:52;;;;;;;9.82;3.95;;;;;;;16.89;55.54;96688.38;6156513;23;20399;-79
2023/10/12 02:03:31;;;;;;;7.38;4.20;;;;;;;16.91;55.44;96687.38;6158023;23;20021;-79
2023/10/12 02:06:04;;;;;;;9.18;4.05;;;;;;;16.87;55.42;96679.09;6157816;23;20024;-79
2023/10/12 02:08:39;;;;;;;9.25;4.82;;;;;;;16.82;55.75;96681.59;6157826;23;20456;-79
2023/10/12 02:11:11;;;;;;;7.20;4.10;;;;;;;16.82;55.56;96682.38;6158051;23;20463;-78
2023/10/12 02:13:41;;;;;;;8.85;4.00;;;;;;;16.75;55.55;96665.81;6158019;23;20418;-79
2023/10/12 02:16:12;;;;;;;9.48;4.30;;;;;;;16.71;55.79;96682.28;6157771;23;20024;-79
2023/10/12 02:18:43;;;;;;;4.97;3.83;;;;;;;16.66;55.97;96675.00;6157757;23;20068;-79
2023/10/12 02:21:18;;;;;;;9.57;4.05;;;;;;;16.63;56.11;96672.81;6157493;23;20484;-79
2023/10/12 02:23:57;;;;;;;9.15;4.55;;;;;;;16.60;56.15;96668.81;6158213;23;20021;-78
2023/10/12 02:26:37;;;;;;;9.20;3.92;;;;;;;16.59;56.27;96674.28;6157433;23;20056;-78
2023/10/12 02:29:17;;;;;;;8.38;4.13;;;;;;;16.59;56.34;96669.00;6157403;23;20017;-79
2023/10/12 02:31:58;;;;;;;9.18;4.45;;;;;;;16.56;56.33;96670.25;6128138;23;20021;-79
2023/10/12 02:34:32;;;;;;;6.03;3.90;;;;;;;16.57;56.52;96665.78;6127798;23;20344;-78
2023/10/12 02:37:16;;;;;;;7.45;4.30;;;;;;;16.59;56.35;96671.66;6127285;23;20124;-78
2023/10/12 02:39:53;;;;;;;11.60;4.75;;;;;;;16.59;56.24;96676.91;6127894;23;20022;-79
2023/10/12 02:42:38;;;;;;;5.13;3.72;;;;;;;16.51;56.45;96674.56;6127505;23;20022;-79
2023/10/12 02:45:17;;;;;;;9.20;4.32;;;;;;;16.45;56.62;96679.69;6127249;23;20022;-79
2023/10/12 02:47:49;;;;;;;9.65;4.68;;;;;;;16.46;56.69;96670.78;6128022;23;20081;-79
2023/10/12 02:50:37;;;;;;;8.57;4.45;;;;;;;16.44;56.68;96672.81;6127827;23;20105;-79
2023/10/12 02:53:12;;;;;;;11.23;4.35;;;;;;;16.42;56.83;96671.41;6127106;23;20026;-79
2023/10/12 02:55:48;;;;;;;9.80;4.45;;;;;;;16.41;57.06;96665.31;6127139;23;20460;-78
2023/10/12 02:58:20;;;;;;;9.60;4.10;;;;;;;16.40;56.86;96669.00;6127601;23;20022;-79
2023/10/12 03:00:55;;;;;;;8.95;4.07;;;;;;;16.38;56.90;96660.50;6127462;23;20018;-79
2023/10/12 03:03:33;;;;;;;8.23;4.35;;;;;;;16.38;57.02;96665.78;6127346;23;20045;-79
2023/10/12 03:06:07;;;;;;;11.40;4.75;;;;;;;16.39;56.95;96664.75;6127664;23;20080;-79
2023/10/12 03:09:02;;;;;;;10.30;4.85;;;;;;;16.41;56.86;96669.78;6127857;23;20030;-78
2023/10/12 03:11:33;;;;;;;13.90;4.82;;;;;;;16.38;56.89;96663.16;6126793;23;20041;-79
2023/10/12 03:14:12;;;;;;;9.57;4.78;;;;;;;16.34;57.09;96664.59;6127416;23;20400;-79
2023/10/12 03:16:43;;;;;;;8.90;4.60;;;;;;;16.28;57.12;96661.00;6128066;23;20025;-79
2023/10/12 03:19:24;;;;;;;11.07;4.40;;;;;;;16.26;57.05;96662.22;6127573;23;20352;-78
2023/10/12 03:22:03;;;;;;;11.63;4.30;;;;;;;16.24;57.13;96669.53;6148115;23;20005;-78
2023/10/12 03:24:43;;;;;;;10.07;4.43;;;;;;;16.20;57.54;96665.72;6147531;23;20021;-78
2023/10/12 03:27:16;;;;;;;11.23;4.40;;;;;;;16.18;57.36;96673.84;6128659;23;20022;-78
2023/10/12 03:29:51;;;;;;;8.35;4.75;;;;;;;16.20;57.47;96684.13;6127583;23;20024;-79
2023/10/12 03:32:23;;;;;;;10.13;4.88;;;;;;;16.18;57.27;96671.22;6127328;23;20025;-79
2023/10/12 03:34:54;;;;;;;;;;;;;;;16.21;57.35;96677.88;6128867;23;20018;-79
2023/10/12 03:40:49;;;;;;;10.38;4.25;;;;;;;16.14;57.56;96664.78;6126579;23;20092;-79
2023/10/12 03:43:10;;;;;;;9.27;4.43;;;;;;;16.11;57.69;96657.28;6127070;23;20096;-79
2023/10/12 03:45:49;;;;;;;7.38;4.75;;;;;;;16.09;57.80;96656.69;6127004;23;20468;-78
2023/10/12 03:48:26;;;;;;;7.50;3.88;;;;;;;16.11;57.73;96667.81;6127862;23;20459;-79
2023/10/12 03:51:12;;;;;;;11.68;4.35;;;;;;;16.14;57.59;96653.44;6127103;23;20168;-78
2023/10/12 03:53:56;;;;;;;12.18;4.93;;;;;;;16.10;57.50;96660.16;6126694;23;20356;-79
2023/10/12 03:56:33;;;;;;;8.00;4.28;;;;;;;16.05;57.68;96664.22;6126882;23;20022;-78
2023/10/12 03:59:07;;;;;;;13.18;4.80;;;;;;;16.03;57.77;96668.91;6127579;23;20025;-79
2023/10/12 04:01:41;;;;;;;14.27;5.88;;;;;;;16.03;58.08;96665.47;6126783;23;20085;-78
2023/10/12 04:04:21;;;;;;;14.20;5.47;;;;;;;16.01;57.91;96665.69;6126758;23;20387;-79
2023/10/12 04:07:17;;;;;;;11.73;5.85;;;;;;;16.00;57.95;96647.47;6126547;23;20018;-79
2023/10/12 04:09:54;;;;;;;9.90;4.75;;;;;;;16.00;58.34;96656.16;6126731;23;20093;-78
2023/10/12 04:12:36;;;;;;;10.77;5.65;;;;;;;16.02;57.84;96656.75;6126521;23;20523;-78
2023/10/12 04:15:26;;;;;;;18.70;6.03;;;;;;;16.03;57.88;96668.09;6126727;23;20026;-79
2023/10/12 04:17:59;;;;;;;10.85;4.80;;;;;;;15.99;57.91;96672.19;6126333;23;20448;-79
2023/10/12 04:20:29;;;;;;;13.00;6.20;;;;;;;15.94;58.13;96675.44;6126377;23;20042;-79
2023/10/12 04:26:09;;;;;;;10.52;5.05;;;;;;;15.83;58.29;96676.94;6125907;23;20077;-79
2023/10/12 04:28:37;;;;;;;14.48;5.90;;;;;;;15.78;58.39;96671.50;6126381;23;20030;-78
2023/10/12 04:31:33;;;;;;;12.07;5.93;;;;;;;15.78;58.97;96665.44;6126582;23;20018;-78
2023/10/12 04:34:06;;;;;;;9.32;5.35;;;;;;;15.78;58.80;96666.22;6126635;23;20047;-79
2023/10/12 04:36:44;;;;;;;11.27;5.90;;;;;;;15.85;58.73;96671.44;6126764;23;20025;-78
2023/10/12 04:39:24;;;;;;;10.40;5.30;;;;;;;15.86;58.46;96679.13;6126574;23;20089;-79
2023/10/12 04:42:11;;;;;;;12.75;5.70;;;;;;;15.90;58.46;96673.47;6126273;23;20022;-79
2023/10/12 04:44:52;;;;;;;13.07;6.60;;;;;;;15.92;58.41;96676.66;6126340;23;20368;-79
2023/10/12 04:47:23;;;;;;;14.82;7.15;;;;;;;15.88;58.50;96686.03;6127042;23;20022;-78
2023/10/12 04:49:57;;;;;;;13.32;6.03;;;;;;;15.86;58.57;96688.84;6126765;23;20081;-79
2023/10/12 04:52:32;;;;;;;12.30;7.40;;;;;;;15.85;58.47;96687.22;6126430;23;20026;-79
2023/10/12 04:55:20;;;;;;;16.50;7.55;;;;;;;15.84;58.50;96696.94;6126235;23;20029;-78
2023/10/12 04:58:13;;;;;;;14.10;6.80;;;;;;;15.81;58.85;96696.59;6126345;23;20021;-78
2023/10/12 05:03:39;;;;;;;10.38;6.28;;;;;;;15.76;59.02;96699.03;6125859;23;20021;-79
2023/10/12 05:06:08;;;;;;;11.52;6.28;;;;;;;15.77;59.13;96705.91;6126730;23;20026;-78
2023/10/12 05:08:40;;;;;;;14.43;8.02;;;;;;;15.77;58.90;96705.91;6126546;23;20064;-78
2023/10/12 05:11:09;;;;;;;11.60;5.70;;;;;;;15.79;59.10;96703.88;6126679;23;20460;-79
2023/10/12 05:13:43;;;;;;;13.35;5.28;;;;;;;15.78;59.42;96691.75;6126233;23;20045;-79
2023/10/12 05:16:14;;;;;;;10.63;5.50;;;;;;;15.74;59.37;96696.63;6126590;23;20089;-79
2023/10/12 05:18:47;;;;;;;10.48;5.82;;;;;;;15.70;59.25;96695.41;6127400;23;20077;-77
2023/10/12 05:21:16;;;;;;;11.77;5.55;;;;;;;15.65;59.31;96688.16;6126747;23;20025;-79
2023/10/12 05:23:45;;;;;;;12.93;6.00;;;;;;;15.64;59.13;96697.06;6127692;23;20526;-79
2023/10/12 05:26:14;;;;;;;14.48;5.70;;;;;;;15.61;59.29;96700.13;6127570;23;20018;-78
2023/10/12 05:28:58;;;;;;;17.60;6.07;;;;;;;15.56;59.38;96699.91;6126962;23;20412;-78
2023/10/12 05:31:29;;;;;;;23.30;6.50;;;;;;;15.54;59.63;96699.31;6126628;23;20033;-78
2023/10/12 05:34:20;;;;;;;16.13;5.72;;;;;;;15.50;59.63;96700.75;6126347;23;20057;-79
2023/10/12 05:36:49;;;;;;;15.48;5.57;;;;;;;15.49;59.73;96699.16;6125962;23;20033;-78
2023/10/12 05:39:20;;;;;;;16.42;6.53;;;;;;;15.49;59.82;96703.63;6126010;23;20042;-78
2023/10/12 05:41:49;;;;;;;10.60;5.05;;;;;;;15.53;59.76;96702.19;6126464;23;20029;-78
2023/10/12 05:44:17;;;;;;;27.05;6.78;;;;;;;15.53;59.53;96705.59;6129826;23;20025;-78
2023/10/12 05:46:51;;;;;;;15.52;6.05;;;;;;;15.49;59.97;96706.25;6141045;23;20014;-78
2023/10/12 05:49:25;;;;;;;17.10;6.38;;;;;;;15.48;60.01;96718.59;6141691;23;20078;-78
2023/10/12 05:51:54;;;;;;;16.42;6.43;;;;;;;15.51;60.39;96712.09;6139178;23;20041;-78
2023/10/12 05:54:23;;;;;;;17.95;7.38;;;;;;;15.51;60.27;96728.69;6126573;23;20026;-79
2023/10/12 05:56:53;;;;;;;23.35;7.75;;;;;;;15.53;59.92;96728.47;6126476;23;20059;-78
2023/10/12 05:59:22;;;;;;;22.25;7.07;;;;;;;15.54;60.07;96728.25;6125963;23;20018;-78
2023/10/12 06:01:51;;;;;;;26.67;8.98;;;;;;;15.59;59.60;96731.06;6125984;23;20102;-79
2023/10/12 06:04:21;;;;;;;24.17;9.45;;;;;;;15.64;59.63;96738.31;6126352;23;20026;-78
2023/10/12 06:06:52;;;;;;;21.67;8.32;;;;;;;15.66;59.55;96738.91;6125935;23;20014;-78
2023/10/12 06:09:23;;;;;;;20.63;11.00;;;;;;;15.70;59.44;96732.22;6125992;23;20021;-79
2023/10/12 06:11:55;;;;;;;23.15;9.30;;;;;;;15.74;59.37;96730.00;6126802;23;20027;-78
2023/10/12 06:14:23;;;;;;;20.85;8.13;;;;;;;15.76;59.51;96733.22;6126186;23;20022;-79
2023/10/12 06:16:58;;;;;;;25.42;10.07;;;;;;;15.75;59.47;96737.69;6126505;23;20053;-78
2023/10/12 06:19:29;;;;;;;16.67;9.18;;;;;;;15.72;59.65;96742.53;6126196;23;20025;-78
2023/10/12 06:22:13;;;;;;;22.80;9.35;;;;;;;15.73;59.42;96750.22;6125947;23;20022;-79
2023/10/12 06:24:44;;;;;;;16.58;8.00;;;;;;;15.77;59.59;96742.75;6125877;23;20022;-78
2023/10/12 06:27:23;;;;;;;18.02;8.27;;;;;;;15.82;59.53;96746.34;6125784;23;20014;-79
2023/10/12 06:29:54;;;;;;;21.30;9.77;;;;;;;15.88;59.51;96739.44;6125777;23;20021;-79
2023/10/12 06:32:31;;;;;;;34.22;10.85;;;;;;;15.95;59.64;96747.28;6131180;23;20021;-78
2023/10/12 06:35:13;;;;;;;30.60;10.18;;;;;;;16.01;59.55;96749.06;6146122;23;20025;-78
2023/10/12 06:38:00;;;;;;;29.80;10.60;;;;;;;16.05;59.56;96745.00;6139768;23;20097;-78
2023/10/12 06:46:04;;;;;;;25.35;9.98;;;;;;;16.12;59.50;96750.22;6079335;23;20018;-79
2023/10/12 06:48:45;;;;;;;21.05;10.48;;;;;;;16.14;59.56;96750.81;6128560;23;20018;-79
2023/10/12 06:51:15;;;;;;;17.38;8.52;;;;;;;16.19;59.84;96741.25;6128191;23;20018;-79
2023/10/12 06:53:52;;;;;;;19.85;10.57;;;;;;;16.26;59.40;96752.53;6128123;23;20045;-78
2023/10/12 06:56:27;;;;;;;21.98;11.98;;;;;;;16.34;59.16;96743.56;6127924;23;20026;-78
2023/10/12 06:59:13;;;;;;;21.42;11.88;;;;;;;16.39;59.10;96743.72;6127980;23;20092;-79
2023/10/12 07:04:36;;;;;;;27.02;14.38;;;;;;;16.52;58.64;96742.81;6126617;23;20022;-78
2023/10/12 07:07:11;;;;;;;27.65;14.98;;;;;;;16.56;58.91;96753.72;6128029;23;20100;-79
2023/10/12 07:09:40;;;;;;;22.90;14.60;;;;;;;16.60;58.77;96757.53;6127792;23;20025;-79
2023/10/12 07:12:11;;;;;;;29.30;16.30;;;;;;;16.67;58.54;96763.56;6127542;23;20349;-79
2023/10/12 07:14:46;;;;;;;40.58;18.45;;;;;;;16.71;58.17;96756.84;6128021;23;20460;-78
2023/10/12 07:17:16;;;;;;;34.63;17.65;;;;;;;16.74;58.38;96760.84;6127515;23;20018;-78
2023/10/12 07:19:51;;;;;;;34.63;19.02;;;;;;;16.79;58.27;96772.38;6127910;23;20018;-78
2023/10/12 07:22:22;;;;;;;32.47;18.02;;;;;;;16.80;58.09;96784.53;6128025;23;20077;-79
2023/10/12 07:24:53;;;;;;;31.73;16.63;;;;;;;16.81;58.37;96775.59;6127713;23;20042;-79
2023/10/12 07:27:25;;;;;;;31.50;17.00;;;;;;;16.86;58.52;96785.50;6126908;23;20048;-79
2023/10/12 07:30:09;;;;;;;33.47;15.75;;;;;;;16.92;58.77;96781.19;6126956;23;20025;-79
2023/10/12 07:32:38;;;;;;;26.90;15.55;;;;;;;17.01;58.76;96795.69;6127732;23;20093;-79
2023/10/12 07:35:17;;;;;;;26.58;14.98;;;;;;;17.08;58.63;96804.34;6127640;23;20080;-79
2023/10/12 07:37:51;;;;;;;32.20;15.45;;;;;;;17.13;58.71;96803.69;6127248;23;20022;-79
2023/10/12 07:40:23;;;;;;;27.50;16.63;;;;;;;17.16;58.26;96798.78;6127863;23;20030;-79
2023/10/12 07:42:53;;;;;;;26.70;15.88;;;;;;;17.21;58.03;96796.31;6127526;23;20072;-79
2023/10/12 07:45:28;;;;;;;27.95;16.10;;;;;;;17.25;58.15;96797.50;6126977;23;20109;-78
2023/10/12 07:48:00;;;;;;;34.42;17.70;;;;;;;17.27;57.97;96805.97;6128535;23;20014;-79
2023/10/12 07:50:37;;;;;;;29.08;15.90;;;;;;;17.27;57.92;96805.97;6127685;23;20022;-79
2023/10/12 07:53:22;;;;;;;29.58;15.77;;;;;;;17.29;58.34;96800.47;6127417;23;20416;-79
2023/10/12 07:56:00;;;;;;;26.85;13.25;;;;;;;17.33;58.33;96799.00;6127502;23;20025;-78
2023/10/12 07:58:31;;;;;;;29.10;13.65;;;;;;;17.38;58.29;96796.53;6140548;23;20029;-79
2023/10/12 08:01:20;;;;;;;19.98;11.68;;;;;;;17.43;57.99;96793.25;6127107;23;20026;-79
2023/10/12 08:03:53;;;;;;;25.75;12.20;;;;;;;17.49;58.29;96782.63;6127830;23;20052;-78
2023/10/12 08:06:31;;;;;;;33.17;14.45;;;;;;;17.52;58.57;96778.72;6126918;23;20393;-79
2023/10/12 08:09:05;;;;;;;26.75;13.10;;;;;;;17.55;58.96;96780.91;6127178;23;20105;-78
2023/10/12 08:11:39;;;;;;;34.10;12.57;;;;;;;17.57;59.21;96792.03;6127165;23;20096;-79
2023/10/12 08:14:19;;;;;;;26.15;12.68;;;;;;;17.60;59.15;96791.63;6126859;23;20022;-79
2023/10/12 08:17:25;;;;;;;28.33;11.77;;;;;;;17.66;59.26;96782.78;6126619;23;20018;-79
2023/10/12 08:19:45;;;;;;;22.30;10.65;;;;;;;17.74;59.33;96788.81;6127473;23;20467;-79
2023/10/12 08:22:26;;;;;;;19.15;9.65;;;;;;;17.86;58.70;96792.31;6129537;23;20023;-78
2023/10/12 08:24:58;;;;;;;22.83;9.48;;;;;;;18.03;58.66;96795.16;6128708;23;20040;-79
2023/10/12 08:27:43;;;;;;;20.60;9.45;;;;;;;18.26;58.01;96794.44;6103185;23;20045;-79
2023/10/12 08:30:19;;;;;;;22.40;9.40;;;;;;;18.47;57.61;96791.25;6128145;23;20104;-79
2023/10/12 08:32:59;;;;;;;18.98;8.38;;;;;;;18.77;56.81;96802.78;6126405;23;20360;-79
2023/10/12 08:35:39;;;;;;;13.13;7.70;;;;;;;19.00;56.06;96797.53;6127281;23;20060;-79
2023/10/12 08:38:13;;;;;;;16.15;8.18;;;;;;;19.23;55.68;96791.41;6126508;23;20022;-79
2023/10/12 08:43:48;;;;;;;26.23;8.40;;;;;;;19.48;55.16;96792.97;6126248;23;20017;-79
2023/10/12 08:52:07;;;;;;;21.20;10.80;;;;;;;19.59;54.80;96775.47;6126380;23;20071;-78
2023/10/12 08:54:41;;;;;;;19.30;9.52;;;;;;;19.66;54.79;96787.53;6126350;23;20526;-79
2023/10/12 08:57:20;;;;;;;14.55;7.45;;;;;;;19.74;53.59;96779.28;6127154;23;20026;-79
2023/10/12 09:00:19;;;;;;;11.43;6.75;;;;;;;19.80;53.47;96779.34;6126290;23;20341;-79
2023/10/12 09:02:52;;;;;;;13.40;5.70;;;;;;;19.84;51.94;96781.28;6126266;23;20020;-79
2023/10/12 09:05:25;;;;;;;8.95;5.40;;;;;;;19.90;52.09;96790.94;6126217;23;20022;-79
2023/10/12 09:08:08;;;;;;;10.05;5.78;;;;;;;19.99;51.94;96788.72;6126270;23;20085;-79
2023/10/12 09:10:51;;;;;;;12.52;5.05;;;;;;;20.14;51.40;96796.16;6126327;23;20093;-79
2023/10/12 09:13:24;;;;;;;11.20;5.30;;;;;;;20.24;51.23;96800.81;6126363;23;20097;-79
2023/10/12 09:15:57;;;;;;;9.55;5.63;;;;;;;20.35;51.25;96798.09;6126458;23;20102;-79
2023/10/12 09:18:29;;;;;;;15.05;5.65;;;;;;;20.45;50.72;96800.13;6126262;23;20460;-78
2023/10/12 09:21:17;;;;;;;9.30;4.72;;;;;;;20.51;50.58;96798.34;6127181;23;20392;-79
2023/10/12 09:23:50;;;;;;;11.85;4.72;;;;;;;20.57;50.91;96805.38;6126831;23;20086;-79
2023/10/12 09:26:30;;;;;;;13.65;4.93;;;;;;;20.62;50.87;96804.63;6126726;23;20018;-79
2023/10/12 09:32:13;;;;;;;14.73;6.55;;;;;;;20.68;50.01;96811.63;6122922;23;20025;-79
2023/10/12 09:34:47;;;;;;;11.70;5.10;;;;;;;20.70;50.29;96798.94;6126552;23;20034;-79
2023/10/12 09:40:23;;;;;;;12.15;5.55;;;;;;;20.75;50.21;96802.50;6124207;23;20065;-79
2023/10/12 09:45:55;;;;;;;8.32;4.75;;;;;;;20.81;50.00;96800.69;6142259;23;20051;-79
2023/10/12 09:48:38;;;;;;;9.80;4.97;;;;;;;20.84;49.49;96816.16;6146660;23;20018;-79
2023/10/12 09:51:15;;;;;;;9.88;5.05;;;;;;;20.85;49.59;96804.47;6135967;23;20014;-78
2023/10/12 09:53:53;;;;;;;12.27;4.70;;;;;;;20.86;49.76;96800.81;6130976;23;20021;-79
2023/10/12 09:56:33;;;;;;;17.60;5.13;;;;;;;20.91;49.83;96789.47;6127669;23;20460;-81
2023/10/12 09:59:13;;;;;;;11.00;4.90;;;;;;;20.94;48.92;96784.47;6127028;23;20359;-79
2023/10/12 10:01:50;;;;;;;7.82;4.30;;;;;;;20.96;48.75;96789.53;6126487;23;20018;-78
2023/10/12 10:04:29;;;;;;;9.88;4.47;;;;;;;20.99;48.90;96779.25;6126801;23;20472;-79
2023/10/12 10:07:15;;;;;;;6.45;4.20;;;;;;;21.05;48.35;96785.41;6126396;23;20507;-79
2023/10/12 10:09:49;;;;;;;10.65;4.47;;;;;;;21.12;47.89;96788.72;6138112;23;20085;-79
2023/10/12 10:12:22;;;;;;;11.25;4.57;;;;;;;21.18;47.70;96789.56;6127555;23;20030;-79
2023/10/12 10:14:59;;;;;;;8.57;4.47;;;;;;;21.23;47.29;96787.00;6126645;23;20025;-78
2023/10/12 10:17:36;;;;;;;10.88;4.82;;;;;;;21.33;47.12;96783.66;6126398;23;20022;-79
2023/10/12 10:20:34;;;;;;;11.90;4.13;;;;;;;21.47;47.06;96792.09;6127058;23;20018;-78
2023/10/12 10:23:11;;;;;;;8.13;4.15;;;;;;;21.58;46.36;96788.50;6127892;23;20084;-78
2023/10/12 10:25:56;;;;;;;9.25;3.80;;;;;;;21.64;46.04;96782.22;6128797;23;20022;-79
2023/10/12 10:28:29;;;;;;;8.82;3.78;;;;;;;21.68;45.69;96783.31;6128011;23;20018;-78
2023/10/12 10:31:00;;;;;;;7.43;4.00;;;;;;;21.73;45.77;96775.41;6128303;23;20022;-79
2023/10/12 10:33:38;;;;;;;9.57;4.15;;;;;;;21.77;45.25;96771.22;6128290;23;20468;-79
2023/10/12 10:36:13;;;;;;;5.80;3.60;;;;;;;21.80;45.72;96781.34;6127547;23;20038;-78
2023/10/12 10:38:53;;;;;;;7.60;3.88;;;;;;;21.85;44.89;96785.13;6127595;23;20069;-78
2023/10/12 10:41:38;;;;;;;11.82;4.00;;;;;;;21.86;45.00;96784.06;6128498;23;20449;-78
2023/10/12 10:44:15;;;;;;;10.13;4.45;;;;;;;21.88;45.37;96787.25;6126564;23;20026;-78
2023/10/12 10:46:48;;;;;;;6.75;4.35;;;;;;;21.90;44.79;96785.16;6127895;23;20044;-78
2023/10/12 10:49:20;;;;;;;8.50;4.47;;;;;;;21.91;44.80;96790.22;6128188;23;20017;-78
2023/10/12 10:52:13;;;;;;;6.50;4.13;;;;;;;21.92;45.21;96788.38;6127648;23;20022;-78
2023/10/12 10:54:56;;;;;;;6.88;4.18;;;;;;;21.95;45.27;96782.56;6127595;23;20029;-78
2023/10/12 10:57:37;;;;;;;7.85;4.00;;;;;;;21.97;45.19;96777.78;6127773;23;20021;-78
2023/10/12 11:00:16;;;;;;;9.13;4.70;;;;;;;22.00;45.23;96785.28;6128738;23;20081;-78
2023/10/12 11:02:48;;;;;;;10.02;4.70;;;;;;;22.01;45.15;96776.25;6127715;23;20028;-78
2023/10/12 11:05:28;;;;;;;12.85;5.10;;;;;;;22.03;45.36;96784.75;6127814;23;20018;-78
2023/10/12 11:08:18;;;;;;;6.57;4.10;;;;;;;22.06;45.19;96781.59;6127548;23;20014;-79
2023/10/12 11:13:38;;;;;;;10.80;4.40;;;;;;;22.19;44.89;96773.25;6126193;23;20021;-78
2023/10/12 11:18:55;;;;;;;9.18;3.90;;;;;;;22.40;44.39;96776.09;6127490;23;20024;-79
2023/10/12 11:21:27;;;;;;;10.32;4.40;;;;;;;22.49;43.52;96760.50;6127517;23;20026;-78
2023/10/12 11:24:01;;;;;;;;;;;;;;;22.57;44.29;96774.13;6127978;23;20088;-78
2023/10/12 11:26:51;;;;;;;8.32;4.43;;;;;;;22.66;43.13;96773.66;6128748;23;19917;-78
2023/10/12 11:29:28;;;;;;;10.32;4.18;;;;;;;22.74;43.21;96768.69;6102827;23;20014;-78
2023/10/12 11:32:16;;;;;;;8.25;3.92;;;;;;;22.79;42.69;96773.22;6128459;23;20116;-78
2023/10/12 11:34:50;;;;;;;7.60;3.88;;;;;;;22.82;42.84;96770.03;6128020;23;20435;-78
2023/10/12 11:40:29;;;;;;;10.00;4.18;;;;;;;22.90;42.61;96766.91;6140511;22;20023;-76
2023/10/12 11:42:57;;;;;;;6.82;4.22;;;;;;;22.92;42.89;96759.47;6216175;23;20099;-77
2023/10/12 11:45:33;;;;;;;6.22;3.85;;;;;;;22.95;42.65;96760.81;6215551;23;20021;-77
2023/10/12 11:48:18;;;;;;;7.60;4.25;;;;;;;22.98;42.96;96755.78;6215928;23;20087;-77
2023/10/12 11:50:48;;;;;;;8.23;4.60;;;;;;;22.99;43.06;96748.59;6215557;23;20066;-77
2023/10/12 11:53:17;;;;;;;8.05;3.88;;;;;;;22.98;42.54;96737.16;6215725;23;20100;-78
2023/10/12 11:55:48;;;;;;;8.68;4.20;;;;;;;22.97;42.13;96750.72;6215782;23;20083;-79
2023/10/12 11:58:19;;;;;;;9.65;4.60;;;;;;;22.96;42.09;96747.28;6217002;23;20031;-79
2023/10/12 12:00:48;;;;;;;6.07;3.73;;;;;;;22.96;42.40;96754.47;6216500;23;20025;-79
2023/10/12 12:03:17;;;;;;;8.10;4.20;;;;;;;22.93;42.47;96750.44;6216718;23;20029;-79
2023/10/12 12:05:50;;;;;;;9.95;4.15;;;;;;;22.91;42.42;96755.19;6215667;23;20055;-79
2023/10/12 12:08:19;;;;;;;9.95;5.00;;;;;;;22.89;42.10;96754.66;6216365;23;20095;-79
2023/10/12 12:10:54;;;;;;;9.30;3.72;;;;;;;22.88;42.01;96763.72;6215976;23;20025;-79
2023/10/12 12:13:23;;;;;;;11.32;4.38;;;;;;;22.84;42.36;96760.75;6216408;23;20025;-79
2023/10/12 12:15:55;;;;;;;9.68;5.07;;;;;;;22.82;42.43;96768.19;6229817;23;20470;-80
2023/10/12 12:18:23;;;;;;;7.32;4.35;;;;;;;22.80;42.63;96769.50;6236642;23;20020;-79
2023/10/12 12:20:52;;;;;;;8.52;4.57;;;;;;;22.77;43.02;96772.69;6230715;23;20031;-79
2023/10/12 12:23:26;;;;;;;10.50;4.82;;;;;;;22.77;42.62;96770.00;6216084;23;20099;-79
2023/10/12 12:25:59;;;;;;;7.03;4.30;;;;;;;22.78;42.45;96775.09;6215990;23;20028;-79
2023/10/12 12:28:31;;;;;;;9.20;4.40;;;;;;;22.79;42.55;96776.69;6216023;23;20021;-79
2023/10/12 12:31:00;;;;;;;7.50;4.57;;;;;;;22.79;42.79;96775.88;6215756;23;20474;-79
2023/10/12 12:33:29;;;;;;;10.80;4.03;;;;;;;22.78;42.56;96776.94;6216162;23;20059;-79
2023/10/12 12:36:00;;;;;;;6.25;3.90;;;;;;;22.76;42.64;96776.38;6215995;23;20024;-78
2023/10/12 12:38:48;;;;;;;;;;;;;;;22.73;42.78;96774.25;6216744;23;20040;-79
2023/10/12 12:41:22;;;;;;;8.07;3.95;;;;;;;22.67;42.89;96772.59;6215578;23;19916;-79
2023/10/12 12:43:50;;;;;;;8.35;4.85;;;;;;;22.65;43.32;96780.03;6215828;23;20067;-79
2023/10/12 12:46:19;;;;;;;10.00;5.55;;;;;;;22.62;43.37;96771.50;6215351;23;20530;-79
2023/10/12 12:48:50;;;;;;;7.82;4.35;;;;;;;22.58;43.19;96778.38;6216277;23;20048;-79
2023/10/12 12:51:19;;;;;;;8.30;4.88;;;;;;;22.55;43.43;96773.56;6216437;23;20020;-79